Time;durP1;ratioP1;P1;durP2;ratioP2;P2;SDS_P1;SDS_P2;PMS_P1;PMS_P2;Temp;Humidity;BMP_temperature;BMP_pressure;BME280_temperature;BME280_humidity;BME280_pressure;Samples;Min_cycle;Max_cycle;Signal;HPM_P1;HPM_P2
2022/11/03 00:02:12;;;;;;;20.15;10.95;;;;;;;;;;4937579;29;20130;-40
2022/11/03 00:04:37;;;;;;;27.33;10.00;;;;;;;;;;4937486;29;20111;-39
2022/11/03 00:07:03;;;;;;;22.65;12.43;;;;;;;;;;4937470;29;20024;-40
2022/11/03 00:09:30;;;;;;;24.23;11.43;;;;;;;;;;4937347;29;20023;-40
2022/11/03 00:11:55;;;;;;;24.02;11.13;;;;;;;;;;4937030;29;20093;-40
2022/11/03 00:14:21;;;;;;;20.17;9.98;;;;;;;;;;4937403;29;20035;-40
2022/11/03 00:16:47;;;;;;;20.98;10.32;;;;;;;;;;4937139;29;20028;-40
2022/11/03 00:19:15;;;;;;;22.80;9.43;;;;;;;;;;4936996;29;20063;-40
2022/11/03 00:21:40;;;;;;;21.15;11.18;;;;;;;;;;4937315;29;20114;-40
2022/11/03 00:24:06;;;;;;;17.88;9.40;;;;;;;;;;4936888;29;20114;-40
2022/11/03 00:26:32;;;;;;;19.60;10.27;;;;;;;;;;4936863;29;20599;-40
2022/11/03 00:29:04;;;;;;;23.90;9.90;;;;;;;;;;4936897;29;20023;-40
2022/11/03 00:31:31;;;;;;;16.40;9.10;;;;;;;;;;4937179;29;20107;-40
2022/11/03 00:33:57;;;;;;;21.02;10.50;;;;;;;;;;4936988;29;20035;-40
2022/11/03 00:36:23;;;;;;;14.48;9.27;;;;;;;;;;4936603;29;20059;-40
2022/11/03 00:38:49;;;;;;;17.58;9.00;;;;;;;;;;4935411;29;20394;-39
2022/11/03 00:41:15;;;;;;;16.10;8.27;;;;;;;;;;4936587;29;20027;-39
2022/11/03 00:43:41;;;;;;;15.45;7.80;;;;;;;;;;4936576;29;20039;-40
2022/11/03 00:46:07;;;;;;;20.02;9.85;;;;;;;;;;4936798;29;20039;-40
2022/11/03 00:48:33;;;;;;;20.70;10.00;;;;;;;;;;4936565;29;20035;-40
2022/11/03 00:50:59;;;;;;;16.23;9.50;;;;;;;;;;4936644;29;20032;-41
2022/11/03 00:53:24;;;;;;;19.05;10.20;;;;;;;;;;4936556;29;20032;-40
2022/11/03 00:55:49;;;;;;;17.38;9.43;;;;;;;;;;4936290;29;20042;-40
2022/11/03 00:58:15;;;;;;;14.75;7.88;;;;;;;;;;4936437;29;20023;-40
2022/11/03 01:00:40;;;;;;;20.98;8.65;;;;;;;;;;4936256;29;20032;-40
2022/11/03 01:03:06;;;;;;;16.10;8.75;;;;;;;;;;4936506;29;20023;-40
2022/11/03 01:08:15;;;;;;;15.38;8.45;;;;;;;;;;4936445;29;20356;-40
2022/11/03 01:11:42;;;;;;;16.95;9.98;;;;;;;;;;4936392;29;20055;-40
2022/11/03 01:13:26;;;;;;;17.02;9.23;;;;;;;;;;4936075;29;20031;-40
2022/11/03 01:15:55;;;;;;;15.75;9.00;;;;;;;;;;4936273;29;20451;-40
2022/11/03 01:18:20;;;;;;;12.70;7.47;;;;;;;;;;4936134;29;20426;-40
2022/11/03 01:20:45;;;;;;;19.25;8.60;;;;;;;;;;4936066;29;20020;-40
2022/11/03 01:23:11;;;;;;;16.83;8.95;;;;;;;;;;4935767;29;20035;-40
2022/11/03 01:25:36;;;;;;;20.13;8.20;;;;;;;;;;4935940;29;20025;-40
2022/11/03 01:28:02;;;;;;;22.17;9.48;;;;;;;;;;4935838;29;20030;-40
2022/11/03 01:30:27;;;;;;;17.80;8.20;;;;;;;;;;4936042;29;20403;-40
2022/11/03 01:32:52;;;;;;;13.27;7.47;;;;;;;;;;4936006;29;20059;-40
2022/11/03 01:35:18;;;;;;;16.67;7.82;;;;;;;;;;4935608;29;20043;-40
2022/11/03 01:37:43;;;;;;;15.23;8.13;;;;;;;;;;4935706;29;20475;-39
2022/11/03 01:40:09;;;;;;;13.23;7.60;;;;;;;;;;4935592;29;20509;-40
2022/11/03 01:42:34;;;;;;;13.43;7.68;;;;;;;;;;4935795;29;20129;-40
2022/11/03 01:44:59;;;;;;;14.80;7.75;;;;;;;;;;4935457;29;20172;-40
2022/11/03 01:47:26;;;;;;;15.98;8.32;;;;;;;;;;4935396;29;20111;-40
2022/11/03 01:50:04;;;;;;;15.38;8.35;;;;;;;;;;4935296;29;20038;-40
2022/11/03 01:52:35;;;;;;;16.58;7.43;;;;;;;;;;4935376;29;20031;-40
2022/11/03 01:55:03;;;;;;;14.68;8.30;;;;;;;;;;4935357;29;20032;-40
2022/11/03 01:57:38;;;;;;;22.55;8.82;;;;;;;;;;4935331;29;20031;-40
2022/11/03 02:00:05;;;;;;;18.88;9.63;;;;;;;;;;4935432;29;20032;-40
2022/11/03 02:02:38;;;;;;;18.15;7.80;;;;;;;;;;4935290;29;20046;-40
2022/11/03 02:05:04;;;;;;;17.50;9.85;;;;;;;;;;4933999;29;20154;-39
2022/11/03 02:07:47;;;;;;;18.23;7.28;;;;;;;;;;4935413;29;20585;-40
2022/11/03 02:10:12;;;;;;;;;;;;;;;;;;4935655;29;20047;-40
2022/11/03 02:12:38;;;;;;;18.38;7.25;;;;;;;;;;4935093;29;20308;-40
2022/11/03 02:15:08;;;;;;;14.75;7.43;;;;;;;;;;4933598;29;20466;-40
2022/11/03 02:17:34;;;;;;;13.52;7.53;;;;;;;;;;4935215;29;20035;-39
2022/11/03 02:20:11;;;;;;;14.68;7.60;;;;;;;;;;4934817;29;20474;-40
2022/11/03 02:22:39;;;;;;;12.77;7.07;;;;;;;;;;4935001;29;20118;-40
2022/11/03 02:25:15;;;;;;;11.68;7.07;;;;;;;;;;4934672;29;20505;-40
2022/11/03 02:27:40;;;;;;;18.77;8.07;;;;;;;;;;4935032;29;20568;-40
2022/11/03 02:30:06;;;;;;;19.85;7.97;;;;;;;;;;4934587;29;20155;-40
2022/11/03 02:32:46;;;;;;;13.13;6.45;;;;;;;;;;4949398;29;20031;-40
2022/11/03 02:35:21;;;;;;;19.15;7.90;;;;;;;;;;4934808;29;20043;-40
2022/11/03 02:37:49;;;;;;;13.75;7.53;;;;;;;;;;4935004;29;20437;-40
2022/11/03 02:40:17;;;;;;;12.77;8.23;;;;;;;;;;4934420;29;20015;-40
2022/11/03 02:42:45;;;;;;;10.20;5.55;;;;;;;;;;4934867;29;20068;-40
2022/11/03 02:45:12;;;;;;;11.73;6.90;;;;;;;;;;4934696;29;20382;-39
2022/11/03 02:47:39;;;;;;;11.23;6.72;;;;;;;;;;4934458;29;20094;-40
2022/11/03 02:50:06;;;;;;;14.65;7.32;;;;;;;;;;4934602;29;20027;-40
2022/11/03 02:52:34;;;;;;;10.07;6.18;;;;;;;;;;4934397;29;20170;-39
2022/11/03 02:55:10;;;;;;;13.63;7.47;;;;;;;;;;4934547;29;20038;-40
2022/11/03 02:57:37;;;;;;;13.73;6.75;;;;;;;;;;4934290;29;20035;-40
2022/11/03 03:00:05;;;;;;;10.50;6.07;;;;;;;;;;4934146;29;20406;-40
2022/11/03 03:02:49;;;;;;;11.90;6.30;;;;;;;;;;4934155;29;20035;-39
2022/11/03 03:05:16;;;;;;;17.15;6.90;;;;;;;;;;4934363;29;20130;-40
2022/11/03 03:07:45;;;;;;;15.25;6.97;;;;;;;;;;4934476;29;20039;-40
2022/11/03 03:10:15;;;;;;;9.00;5.50;;;;;;;;;;4934215;29;20074;-40
2022/11/03 03:12:43;;;;;;;9.77;6.45;;;;;;;;;;4934510;29;20035;-40
2022/11/03 03:15:08;;;;;;;10.32;6.28;;;;;;;;;;4934104;29;20030;-40
2022/11/03 03:17:56;;;;;;;15.77;5.65;;;;;;;;;;4934357;29;20032;-40
2022/11/03 03:20:24;;;;;;;10.93;5.35;;;;;;;;;;4934332;29;20507;-40
2022/11/03 03:22:55;;;;;;;13.15;7.32;;;;;;;;;;4934397;29;20051;-40
2022/11/03 03:25:24;;;;;;;13.60;6.60;;;;;;;;;;4934237;29;20048;-40
2022/11/03 03:27:50;;;;;;;8.23;5.20;;;;;;;;;;4934077;29;20030;-40
2022/11/03 03:30:16;;;;;;;12.05;5.68;;;;;;;;;;4934139;29;20032;-40
2022/11/03 03:32:47;;;;;;;12.80;5.55;;;;;;;;;;4934278;29;20611;-39
2022/11/03 03:35:19;;;;;;;15.52;6.32;;;;;;;;;;4933749;29;20127;-40
2022/11/03 03:37:47;;;;;;;11.05;6.20;;;;;;;;;;4934210;29;20031;-40
2022/11/03 03:40:14;;;;;;;10.93;5.10;;;;;;;;;;4933878;29;20070;-40
2022/11/03 03:42:42;;;;;;;16.23;6.22;;;;;;;;;;4934197;29;20047;-39
2022/11/03 03:45:09;;;;;;;8.07;5.05;;;;;;;;;;4933951;29;20122;-39
2022/11/03 03:47:34;;;;;;;7.85;4.80;;;;;;;;;;4934142;29;20107;-40
2022/11/03 03:50:00;;;;;;;11.23;5.60;;;;;;;;;;4933819;29;20432;-40
2022/11/03 03:52:26;;;;;;;15.77;6.10;;;;;;;;;;4933758;29;20031;-40
2022/11/03 03:54:52;;;;;;;13.13;5.72;;;;;;;;;;4933682;29;20027;-39
2022/11/03 03:57:19;;;;;;;8.43;4.63;;;;;;;;;;4933836;29;20028;-39
2022/11/03 03:59:44;;;;;;;9.30;5.25;;;;;;;;;;4933723;29;20031;-40
2022/11/03 04:02:10;;;;;;;10.55;5.45;;;;;;;;;;4933687;29;20758;-40
2022/11/03 04:04:35;;;;;;;13.10;4.90;;;;;;;;;;4933665;29;20039;-40
2022/11/03 04:08:01;;;;;;;12.63;6.00;;;;;;;;;;4933811;29;20111;-40
2022/11/03 04:09:56;;;;;;;12.52;6.03;;;;;;;;;;4928919;29;20091;-40
2022/11/03 04:23:18;;;;;;;11.73;5.75;;;;;;;;;;4937276;29;20078;-40
2022/11/03 04:25:47;;;;;;;13.05;5.88;;;;;;;;;;4937027;29;20028;-40
2022/11/03 04:28:13;;;;;;;8.68;5.07;;;;;;;;;;4937132;29;20054;-39
2022/11/03 04:30:39;;;;;;;8.93;4.88;;;;;;;;;;4936843;29;20031;-40
2022/11/03 04:33:11;;;;;;;6.75;4.40;;;;;;;;;;4936872;29;20114;-40
2022/11/03 04:35:36;;;;;;;10.07;5.80;;;;;;;;;;4936913;29;20084;-40
2022/11/03 04:38:11;;;;;;;11.48;4.93;;;;;;;;;;4951467;29;20533;-40
2022/11/03 04:40:38;;;;;;;7.25;4.13;;;;;;;;;;4936776;29;20059;-39
2022/11/03 04:43:03;;;;;;;8.40;4.88;;;;;;;;;;4936638;29;20601;-40
2022/11/03 04:45:29;;;;;;;8.45;4.75;;;;;;;;;;4936637;29;20043;-40
2022/11/03 04:47:57;;;;;;;9.82;4.97;;;;;;;;;;4936607;29;20391;-40
2022/11/03 04:50:22;;;;;;;9.18;4.90;;;;;;;;;;4936494;29;20095;-40
2022/11/03 04:52:50;;;;;;;8.70;5.10;;;;;;;;;;4936998;29;20023;-40
2022/11/03 04:55:17;;;;;;;8.32;5.38;;;;;;;;;;4936657;29;20110;-40
2022/11/03 04:57:42;;;;;;;14.32;3.72;;;;;;;;;;4936688;29;20016;-40
2022/11/03 05:00:16;;;;;;;7.75;4.82;;;;;;;;;;4936315;29;20055;-40
2022/11/03 05:02:42;;;;;;;6.55;4.70;;;;;;;;;;4936546;29;20032;-39
2022/11/03 05:05:16;;;;;;;11.68;4.55;;;;;;;;;;4936474;29;20118;-40
2022/11/03 05:07:42;;;;;;;9.18;5.13;;;;;;;;;;4936251;29;20059;-40
2022/11/03 05:10:11;;;;;;;8.32;5.07;;;;;;;;;;4936133;29;20044;-40
2022/11/03 05:12:37;;;;;;;11.25;4.22;;;;;;;;;;4936178;29;20034;-40
2022/11/03 05:15:07;;;;;;;8.52;4.53;;;;;;;;;;4936025;29;20027;-40
2022/11/03 05:17:33;;;;;;;7.03;4.10;;;;;;;;;;4936087;29;20031;-40
2022/11/03 05:20:00;;;;;;;10.07;4.47;;;;;;;;;;4936131;29;20402;-39
2022/11/03 05:22:28;;;;;;;7.20;4.53;;;;;;;;;;4935990;29;20087;-39
2022/11/03 05:24:59;;;;;;;6.68;3.78;;;;;;;;;;4934975;29;20035;-40
2022/11/03 05:27:25;;;;;;;23.33;6.05;;;;;;;;;;4936179;29;20190;-40
2022/11/03 05:29:51;;;;;;;5.70;4.10;;;;;;;;;;4935896;29;20100;-40
2022/11/03 05:32:27;;;;;;;7.85;3.22;;;;;;;;;;4935748;29;20035;-39
2022/11/03 05:34:53;;;;;;;6.78;3.45;;;;;;;;;;4935666;29;20035;-40
2022/11/03 05:37:22;;;;;;;11.18;4.45;;;;;;;;;;4950489;29;20466;-40
2022/11/03 05:39:48;;;;;;;7.60;3.97;;;;;;;;;;4935861;29;20035;-39
2022/11/03 05:42:23;;;;;;;10.02;4.63;;;;;;;;;;4935870;29;20091;-40
2022/11/03 05:44:50;;;;;;;9.50;4.35;;;;;;;;;;4935914;29;20035;-39
2022/11/03 05:47:18;;;;;;;7.07;4.30;;;;;;;;;;4935399;29;20062;-40
2022/11/03 05:49:46;;;;;;;6.75;3.42;;;;;;;;;;4935355;29;20482;-40
2022/11/03 05:52:18;;;;;;;10.88;3.85;;;;;;;;;;4935357;29;20032;-40
2022/11/03 05:54:44;;;;;;;5.90;4.00;;;;;;;;;;4935374;29;20067;-39
2022/11/03 05:57:10;;;;;;;7.10;4.68;;;;;;;;;;4935584;29;20073;-39
2022/11/03 05:59:36;;;;;;;4.78;3.13;;;;;;;;;;4935178;29;20031;-39
2022/11/03 06:02:02;;;;;;;5.40;3.67;;;;;;;;;;4935158;29;20103;-39
2022/11/03 06:04:36;;;;;;;8.35;4.35;;;;;;;;;;4935456;29;20122;-39
2022/11/03 06:07:04;;;;;;;5.22;3.80;;;;;;;;;;4935054;29;20023;-39
2022/11/03 06:09:32;;;;;;;6.78;3.88;;;;;;;;;;4935137;29;20390;-39
2022/11/03 06:11:58;;;;;;;5.38;3.42;;;;;;;;;;4933757;29;20035;-40
2022/11/03 06:14:24;;;;;;;6.63;4.05;;;;;;;;;;4935016;29;20028;-39
2022/11/03 06:16:51;;;;;;;5.47;2.38;;;;;;;;;;4935012;29;20035;-40
2022/11/03 06:19:21;;;;;;;5.13;3.25;;;;;;;;;;4935192;29;20027;-40
2022/11/03 06:21:48;;;;;;;5.47;3.38;;;;;;;;;;4934901;29;20039;-39
2022/11/03 06:24:14;;;;;;;7.63;3.22;;;;;;;;;;4934703;29;20090;-39
2022/11/03 06:26:41;;;;;;;7.75;2.92;;;;;;;;;;4949657;29;20043;-39
2022/11/03 06:29:11;;;;;;;4.40;2.88;;;;;;;;;;4934688;29;20028;-40
2022/11/03 06:31:37;;;;;;;7.85;3.75;;;;;;;;;;4935042;29;20467;-39
2022/11/03 06:34:18;;;;;;;6.60;3.97;;;;;;;;;;4934635;29;20051;-39
2022/11/03 06:36:44;;;;;;;4.18;3.03;;;;;;;;;;4933249;29;20055;-39
2022/11/03 06:39:15;;;;;;;5.68;3.70;;;;;;;;;;4934609;29;20509;-39
2022/11/03 06:41:41;;;;;;;9.32;3.45;;;;;;;;;;4934839;29;20122;-40
2022/11/03 06:44:19;;;;;;;4.25;2.90;;;;;;;;;;4934327;29;20484;-39
2022/11/03 06:46:44;;;;;;;4.93;3.08;;;;;;;;;;4934582;29;20379;-40
2022/11/03 06:49:42;;;;;;;4.15;3.28;;;;;;;;;;4934716;29;20087;-40
2022/11/03 06:52:24;;;;;;;8.00;3.65;;;;;;;;;;4902077;29;20127;-40
2022/11/03 06:54:52;;;;;;;5.90;3.72;;;;;;;;;;4934422;29;20042;-40
2022/11/03 06:57:18;;;;;;;9.38;4.25;;;;;;;;;;4934273;29;20020;-39
2022/11/03 06:59:43;;;;;;;5.13;3.42;;;;;;;;;;4934268;29;20031;-40
2022/11/03 07:02:27;;;;;;;13.93;4.65;;;;;;;;;;4934344;29;20028;-40
2022/11/03 07:04:56;;;;;;;6.60;2.97;;;;;;;;;;4934380;29;20039;-39
2022/11/03 07:07:23;;;;;;;6.40;3.30;;;;;;;;;;4934609;29;20028;-40
2022/11/03 07:09:48;;;;;;;7.68;4.30;;;;;;;;;;4934115;29;20032;-39
2022/11/03 07:12:15;;;;;;;8.32;3.67;;;;;;;;;;4934334;29;20106;-40
2022/11/03 07:14:42;;;;;;;5.30;3.30;;;;;;;;;;4934185;29;20550;-39
2022/11/03 07:17:19;;;;;;;6.55;3.67;;;;;;;;;;4934086;29;20020;-40
2022/11/03 07:19:45;;;;;;;5.63;2.88;;;;;;;;;;4934350;29;20111;-40
2022/11/03 07:22:21;;;;;;;6.45;3.53;;;;;;;;;;4934334;29;20581;-40
2022/11/03 07:24:47;;;;;;;4.05;2.58;;;;;;;;;;4933142;29;20375;-40
2022/11/03 07:27:16;;;;;;;6.13;3.80;;;;;;;;;;4934251;29;20024;-39
2022/11/03 07:29:42;;;;;;;3.85;2.88;;;;;;;;;;4933905;29;20805;-39
2022/11/03 07:32:21;;;;;;;7.10;3.35;;;;;;;;;;4933866;29;20111;-39
2022/11/03 07:34:48;;;;;;;5.05;2.22;;;;;;;;;;4934286;29;20451;-39
2022/11/03 07:37:17;;;;;;;9.45;4.38;;;;;;;;;;4933922;29;20131;-39
2022/11/03 07:39:42;;;;;;;5.90;3.28;;;;;;;;;;4933905;29;20545;-39
2022/11/03 07:42:14;;;;;;;4.03;2.85;;;;;;;;;;4932604;29;20027;-39
2022/11/03 07:44:40;;;;;;;8.05;3.55;;;;;;;;;;4933815;29;20510;-40
2022/11/03 07:47:10;;;;;;;8.07;4.50;;;;;;;;;;4934781;29;20058;-39
2022/11/03 07:49:35;;;;;;;13.23;4.53;;;;;;;;;;4937873;29;20434;-40
2022/11/03 07:52:01;;;;;;;6.15;4.32;;;;;;;;;;4937863;29;20016;-40
2022/11/03 07:54:31;;;;;;;8.50;4.60;;;;;;;;;;4937835;29;20042;-40
2022/11/03 07:56:58;;;;;;;10.15;4.53;;;;;;;;;;4937561;29;20027;-39
2022/11/03 07:59:29;;;;;;;10.73;4.45;;;;;;;;;;4937521;29;20109;-40
2022/11/03 08:01:56;;;;;;;11.30;5.65;;;;;;;;;;4937637;29;20027;-39
2022/11/03 08:04:21;;;;;;;6.70;3.90;;;;;;;;;;4937719;29;20039;-40
2022/11/03 08:06:47;;;;;;;12.13;5.35;;;;;;;;;;4936110;29;20038;-40
2022/11/03 08:09:12;;;;;;;10.68;4.80;;;;;;;;;;4937213;29;20027;-39
2022/11/03 08:11:38;;;;;;;9.55;4.60;;;;;;;;;;4937270;29;20028;-39
2022/11/03 08:14:03;;;;;;;7.82;3.80;;;;;;;;;;4937168;29;20470;-40
2022/11/03 08:16:29;;;;;;;7.28;4.78;;;;;;;;;;4937178;29;20482;-39
2022/11/03 08:18:54;;;;;;;6.43;4.47;;;;;;;;;;4937181;29;20098;-39
2022/11/03 08:21:20;;;;;;;8.57;4.20;;;;;;;;;;4951814;29;20039;-39
2022/11/03 08:23:45;;;;;;;7.95;4.20;;;;;;;;;;4937167;29;20020;-39
2022/11/03 08:26:11;;;;;;;7.00;4.10;;;;;;;;;;4936926;29;20047;-39
2022/11/03 08:28:37;;;;;;;5.40;3.65;;;;;;;;;;4951720;29;20028;-39
2022/11/03 08:31:04;;;;;;;10.65;4.15;;;;;;;;;;4936732;29;20036;-39
2022/11/03 08:33:30;;;;;;;6.15;3.80;;;;;;;;;;4936851;29;20019;-39
2022/11/03 08:35:56;;;;;;;14.10;5.35;;;;;;;;;;4936731;29;20155;-39
2022/11/03 08:38:21;;;;;;;6.75;3.83;;;;;;;;;;4936805;29;20430;-39
2022/11/03 08:40:46;;;;;;;12.85;4.50;;;;;;;;;;4936741;29;20090;-39
2022/11/03 08:43:12;;;;;;;6.13;3.92;;;;;;;;;;4936868;29;20020;-40
2022/11/03 08:45:37;;;;;;;7.22;4.18;;;;;;;;;;4936534;29;20479;-40
2022/11/03 08:48:03;;;;;;;7.35;3.92;;;;;;;;;;4936926;29;20019;-40
2022/11/03 08:50:29;;;;;;;11.88;4.35;;;;;;;;;;4936783;29;20028;-40
2022/11/03 08:52:54;;;;;;;7.22;3.53;;;;;;;;;;4936584;29;20103;-40
2022/11/03 08:55:20;;;;;;;8.68;4.47;;;;;;;;;;4936453;29;20028;-40
2022/11/03 08:57:46;;;;;;;6.32;3.60;;;;;;;;;;4936218;29;20020;-41
2022/11/03 09:00:12;;;;;;;7.57;3.42;;;;;;;;;;4935470;29;20036;-40
2022/11/03 09:02:37;;;;;;;6.43;3.85;;;;;;;;;;4936422;29;20095;-39
2022/11/03 09:05:04;;;;;;;7.80;4.38;;;;;;;;;;4936429;29;20040;-40
2022/11/03 09:07:30;;;;;;;7.47;4.90;;;;;;;;;;4936345;29;20023;-39
2022/11/03 09:09:55;;;;;;;14.02;4.45;;;;;;;;;;4936280;29;20036;-39
2022/11/03 09:12:21;;;;;;;10.32;4.45;;;;;;;;;;4936438;29;20103;-39
2022/11/03 09:14:46;;;;;;;10.50;4.38;;;;;;;;;;4936230;29;20040;-39
2022/11/03 09:17:12;;;;;;;6.63;4.15;;;;;;;;;;4936091;29;20035;-40
2022/11/03 09:19:37;;;;;;;6.78;4.03;;;;;;;;;;4936080;29;20043;-39
2022/11/03 09:22:03;;;;;;;7.35;4.38;;;;;;;;;;4935923;29;20103;-39
2022/11/03 09:24:29;;;;;;;10.45;4.22;;;;;;;;;;4936181;29;20045;-40
2022/11/03 09:26:55;;;;;;;8.63;3.53;;;;;;;;;;4935009;29;20117;-40
2022/11/03 09:29:20;;;;;;;6.03;3.85;;;;;;;;;;4936026;29;20044;-40
2022/11/03 09:31:46;;;;;;;6.72;4.20;;;;;;;;;;4935869;29;20378;-40
2022/11/03 09:34:12;;;;;;;7.78;4.28;;;;;;;;;;4935872;29;20078;-39
2022/11/03 09:36:38;;;;;;;9.07;4.40;;;;;;;;;;4935624;29;20131;-40
2022/11/03 09:39:04;;;;;;;9.18;4.68;;;;;;;;;;4935687;29;20143;-40
2022/11/03 09:41:31;;;;;;;10.32;4.47;;;;;;;;;;4935606;29;20136;-40
2022/11/03 09:43:57;;;;;;;10.25;3.70;;;;;;;;;;4935507;29;20044;-39
2022/11/03 09:46:23;;;;;;;6.45;4.45;;;;;;;;;;4935785;29;20024;-40
2022/11/03 09:48:49;;;;;;;6.25;4.05;;;;;;;;;;4935537;29;20039;-40
2022/11/03 09:51:17;;;;;;;7.45;4.13;;;;;;;;;;4935350;29;20020;-40
2022/11/03 09:53:43;;;;;;;7.15;4.13;;;;;;;;;;4935716;29;20039;-40
2022/11/03 09:56:09;;;;;;;5.18;2.83;;;;;;;;;;4935250;29;20038;-39
2022/11/03 09:58:35;;;;;;;6.53;4.28;;;;;;;;;;4935411;29;20159;-39
2022/11/03 10:01:01;;;;;;;7.13;2.97;;;;;;;;;;4935432;29;20478;-40
2022/11/03 10:03:27;;;;;;;4.55;2.50;;;;;;;;;;4935215;29;20032;-40
2022/11/03 10:05:52;;;;;;;6.13;3.20;;;;;;;;;;4933959;29;20042;-39
2022/11/03 10:08:23;;;;;;;6.95;2.75;;;;;;;;;;4935231;29;20071;-40
2022/11/03 10:10:53;;;;;;;6.88;3.05;;;;;;;;;;4934752;29;20079;-40
2022/11/03 10:13:33;;;;;;;5.03;3.00;;;;;;;;;;4935076;29;20027;-39
2022/11/03 10:16:00;;;;;;;5.43;2.95;;;;;;;;;;4949934;29;20398;-40
2022/11/03 10:18:26;;;;;;;8.70;4.80;;;;;;;;;;4934959;29;20583;-40
2022/11/03 10:20:52;;;;;;;6.82;3.00;;;;;;;;;;4934916;29;20036;-39
2022/11/03 10:23:17;;;;;;;6.45;3.30;;;;;;;;;;4934706;29;20012;-39
2022/11/03 10:25:44;;;;;;;6.07;3.63;;;;;;;;;;4934830;29;20055;-40
2022/11/03 10:28:20;;;;;;;5.78;4.03;;;;;;;;;;4934824;29;20032;-40
2022/11/03 10:30:51;;;;;;;7.13;3.25;;;;;;;;;;4934672;29;20424;-40
2022/11/03 10:33:43;;;;;;;5.68;2.95;;;;;;;;;;4934929;29;20132;-40
2022/11/03 10:36:15;;;;;;;4.35;3.17;;;;;;;;;;4931693;29;20054;-40
2022/11/03 10:38:42;;;;;;;11.15;3.17;;;;;;;;;;4934795;29;20144;-40
2022/11/03 10:41:17;;;;;;;5.85;3.30;;;;;;;;;;4934496;29;20024;-40
2022/11/03 10:43:43;;;;;;;4.43;2.83;;;;;;;;;;4934489;29;20379;-40
2022/11/03 10:46:15;;;;;;;5.45;3.38;;;;;;;;;;4934445;29;20024;-39
2022/11/03 10:48:40;;;;;;;6.10;3.47;;;;;;;;;;4933257;29;20364;-40
2022/11/03 10:51:09;;;;;;;6.65;3.58;;;;;;;;;;4934446;29;20031;-40
2022/11/03 10:53:34;;;;;;;4.20;2.90;;;;;;;;;;4934408;29;20039;-40
2022/11/03 10:56:00;;;;;;;5.65;3.33;;;;;;;;;;4934588;29;20024;-40
2022/11/03 10:58:25;;;;;;;10.45;3.90;;;;;;;;;;4949080;29;20517;-40
2022/11/03 11:00:51;;;;;;;7.93;3.15;;;;;;;;;;4934230;29;20030;-40
2022/11/03 11:03:16;;;;;;;11.15;3.50;;;;;;;;;;4934561;29;20032;-39
2022/11/03 11:05:45;;;;;;;7.55;3.42;;;;;;;;;;4934422;29;20077;-40
2022/11/03 11:08:12;;;;;;;5.72;2.85;;;;;;;;;;4934270;29;20031;-39
2022/11/03 11:10:42;;;;;;;5.78;3.15;;;;;;;;;;4934260;29;20027;-40
2022/11/03 11:13:23;;;;;;;5.47;3.42;;;;;;;;;;4934073;29;20114;-39
2022/11/03 11:15:50;;;;;;;5.03;3.08;;;;;;;;;;4934252;29;20043;-40
2022/11/03 11:18:44;;;;;;;8.65;4.38;;;;;;;;;;4934107;29;20027;-39
2022/11/03 11:21:16;;;;;;;9.15;4.00;;;;;;;;;;4920780;29;20036;-40
2022/11/03 11:23:43;;;;;;;8.48;4.20;;;;;;;;;;4948901;29;20039;-40
2022/11/03 11:26:09;;;;;;;6.03;3.40;;;;;;;;;;4933977;29;20027;-39
2022/11/03 11:28:34;;;;;;;7.43;3.33;;;;;;;;;;4934072;29;20386;-40
2022/11/03 11:30:59;;;;;;;8.63;3.28;;;;;;;;;;4948734;29;20091;-40
2022/11/03 11:33:26;;;;;;;6.32;3.00;;;;;;;;;;4933958;29;20032;-39
2022/11/03 11:35:52;;;;;;;3.85;3.10;;;;;;;;;;4933869;29;20123;-40
2022/11/03 11:38:36;;;;;;;6.50;3.60;;;;;;;;;;4933933;29;20107;-40
2022/11/03 11:41:01;;;;;;;5.57;3.83;;;;;;;;;;4933892;29;20051;-40
2022/11/03 11:43:27;;;;;;;12.30;3.22;;;;;;;;;;4933906;29;20012;-39
2022/11/03 11:46:11;;;;;;;6.05;3.17;;;;;;;;;;4948560;29;20048;-39
2022/11/03 11:48:36;;;;;;;3.75;2.70;;;;;;;;;;4932584;29;20454;-40
2022/11/03 11:51:02;;;;;;;9.45;3.70;;;;;;;;;;4934336;29;20059;-39
2022/11/03 11:53:36;;;;;;;9.80;4.10;;;;;;;;;;4933837;29;20047;-40
2022/11/03 11:56:02;;;;;;;7.68;3.20;;;;;;;;;;4933709;29;20070;-39
2022/11/03 11:58:30;;;;;;;5.80;3.40;;;;;;;;;;4934095;29;20048;-39
2022/11/03 12:01:00;;;;;;;8.70;2.72;;;;;;;;;;4933677;29;20490;-40
2022/11/03 12:03:31;;;;;;;4.03;2.92;;;;;;;;;;4933701;29;20475;-40
2022/11/03 12:05:56;;;;;;;5.63;3.75;;;;;;;;;;4933921;29;20047;-40
2022/11/03 12:08:29;;;;;;;7.53;3.45;;;;;;;;;;4933723;29;20028;-39
2022/11/03 12:10:56;;;;;;;7.00;3.38;;;;;;;;;;4933621;29;20048;-40
2022/11/03 12:13:42;;;;;;;6.30;4.13;;;;;;;;;;4933855;29;20032;-40
2022/11/03 12:16:08;;;;;;;7.00;4.00;;;;;;;;;;4933854;29;20040;-39
2022/11/03 12:18:34;;;;;;;7.30;4.00;;;;;;;;;;4933692;29;20020;-39
2022/11/03 12:21:00;;;;;;;5.70;2.95;;;;;;;;;;4933755;29;20043;-40
2022/11/03 12:23:32;;;;;;;5.13;3.05;;;;;;;;;;4933608;29;20020;-40
2022/11/03 12:25:57;;;;;;;4.65;3.10;;;;;;;;;;4933528;29;20044;-40
2022/11/03 12:28:29;;;;;;;4.45;3.10;;;;;;;;;;4933672;29;20031;-39
2022/11/03 12:30:55;;;;;;;4.80;3.00;;;;;;;;;;4933456;29;20027;-39
2022/11/03 12:33:20;;;;;;;4.45;3.47;;;;;;;;;;4934624;29;20103;-40
2022/11/03 12:35:45;;;;;;;4.32;3.15;;;;;;;;;;4936765;29;20059;-39
2022/11/03 12:38:11;;;;;;;6.45;2.97;;;;;;;;;;4936799;29;20047;-43
2022/11/03 12:40:36;;;;;;;4.20;2.72;;;;;;;;;;4937052;29;20502;-40
2022/11/03 12:43:02;;;;;;;5.20;2.83;;;;;;;;;;4936776;29;20088;-39
2022/11/03 12:45:27;;;;;;;3.42;1.90;;;;;;;;;;4951421;29;20036;-40
2022/11/03 12:47:52;;;;;;;3.83;2.75;;;;;;;;;;4936942;29;20022;-40
2022/11/03 12:50:18;;;;;;;3.55;2.13;;;;;;;;;;4936582;29;20428;-39
2022/11/03 12:52:43;;;;;;;3.65;2.28;;;;;;;;;;4936781;29;20023;-39
2022/11/03 12:55:09;;;;;;;3.47;2.13;;;;;;;;;;4936571;29;20043;-39
2022/11/03 12:57:34;;;;;;;5.15;2.83;;;;;;;;;;4936542;29;20019;-39
2022/11/03 13:00:00;;;;;;;3.65;2.35;;;;;;;;;;4936337;29;20044;-40
2022/11/03 13:02:25;;;;;;;4.32;2.03;;;;;;;;;;4936459;29;20023;-40
2022/11/03 13:04:51;;;;;;;5.72;3.35;;;;;;;;;;4936355;29;20127;-40
2022/11/03 13:07:16;;;;;;;7.32;3.38;;;;;;;;;;4936282;29;20044;-40
2022/11/03 13:09:42;;;;;;;5.43;2.92;;;;;;;;;;4936287;29;20051;-40
2022/11/03 13:14:54;;;;;;;4.13;2.53;;;;;;;;;;4936462;29;20042;-39
2022/11/03 13:17:20;;;;;;;4.90;2.20;;;;;;;;;;4936093;29;20647;-40
2022/11/03 13:19:45;;;;;;;9.00;2.78;;;;;;;;;;4936092;29;20035;-40
2022/11/03 13:22:10;;;;;;;4.85;2.33;;;;;;;;;;4936297;29;20028;-40
2022/11/03 13:24:36;;;;;;;5.63;3.15;;;;;;;;;;4936101;29;20047;-40
2022/11/03 13:27:01;;;;;;;4.85;2.53;;;;;;;;;;4935931;29;20034;-41
2022/11/03 13:29:28;;;;;;;8.40;3.17;;;;;;;;;;4935790;29;20039;-43
2022/11/03 13:31:54;;;;;;;4.40;2.80;;;;;;;;;;4935943;29;20016;-40
2022/11/03 13:34:19;;;;;;;5.07;3.28;;;;;;;;;;4935805;29;20099;-40
2022/11/03 13:36:45;;;;;;;3.75;2.42;;;;;;;;;;4935605;29;20051;-40
2022/11/03 13:39:11;;;;;;;4.35;2.65;;;;;;;;;;4935679;29;20046;-40
2022/11/03 13:41:37;;;;;;;8.02;3.00;;;;;;;;;;4935640;29;20020;-39
2022/11/03 13:44:02;;;;;;;7.22;3.03;;;;;;;;;;4935370;29;20031;-40
2022/11/03 13:46:28;;;;;;;4.50;3.20;;;;;;;;;;4935447;29;20164;-40
2022/11/03 13:48:54;;;;;;;5.90;3.03;;;;;;;;;;4935609;29;20091;-40
2022/11/03 13:51:20;;;;;;;13.40;4.57;;;;;;;;;;4935414;29;20072;-39
2022/11/03 13:53:46;;;;;;;5.15;3.55;;;;;;;;;;4935540;29;20060;-39
2022/11/03 13:56:12;;;;;;;5.50;3.20;;;;;;;;;;4935411;29;20091;-39
2022/11/03 13:58:38;;;;;;;5.68;3.65;;;;;;;;;;4950092;29;20035;-39
2022/11/03 14:01:07;;;;;;;8.02;3.35;;;;;;;;;;4935303;29;20398;-39
2022/11/03 14:03:32;;;;;;;8.55;4.05;;;;;;;;;;4935263;29;20040;-39
2022/11/03 14:05:58;;;;;;;7.47;3.92;;;;;;;;;;4935096;29;20042;-40
2022/11/03 14:08:24;;;;;;;8.30;4.43;;;;;;;;;;4935119;29;20035;-40
2022/11/03 14:10:49;;;;;;;5.05;3.42;;;;;;;;;;4935110;29;20023;-40
2022/11/03 14:13:14;;;;;;;11.57;4.35;;;;;;;;;;4935066;29;20035;-40
2022/11/03 14:15:40;;;;;;;10.75;4.78;;;;;;;;;;4935152;29;20107;-40
2022/11/03 14:18:05;;;;;;;10.43;4.97;;;;;;;;;;4934914;29;20055;-39
2022/11/03 14:20:31;;;;;;;9.38;4.38;;;;;;;;;;4934952;29;20027;-39
2022/11/03 14:22:56;;;;;;;9.73;5.20;;;;;;;;;;4935008;29;20066;-39
2022/11/03 14:25:22;;;;;;;7.75;5.20;;;;;;;;;;4934700;29;20028;-40
2022/11/03 14:27:49;;;;;;;7.40;4.57;;;;;;;;;;4934928;29;20032;-40
2022/11/03 14:30:15;;;;;;;9.73;4.35;;;;;;;;;;4934957;29;20118;-40
2022/11/03 14:32:40;;;;;;;10.55;5.07;;;;;;;;;;4934845;29;20107;-41
2022/11/03 14:35:06;;;;;;;7.50;4.55;;;;;;;;;;4934552;29;20466;-39
2022/11/03 14:37:32;;;;;;;7.88;4.28;;;;;;;;;;4934640;29;20435;-40
2022/11/03 14:39:57;;;;;;;10.07;4.45;;;;;;;;;;4934567;29;20070;-40
2022/11/03 14:42:23;;;;;;;10.63;5.35;;;;;;;;;;4934535;29;20126;-39
2022/11/03 14:44:48;;;;;;;15.98;6.60;;;;;;;;;;4934605;29;20390;-40
2022/11/03 14:47:16;;;;;;;11.98;4.90;;;;;;;;;;4934399;29;20032;-40
2022/11/03 14:49:42;;;;;;;10.82;5.15;;;;;;;;;;4934457;29;20058;-40
2022/11/03 14:52:08;;;;;;;12.77;5.60;;;;;;;;;;4934459;29;20063;-40
2022/11/03 14:54:34;;;;;;;11.32;5.35;;;;;;;;;;4934669;29;20035;-40
2022/11/03 14:57:00;;;;;;;7.68;5.65;;;;;;;;;;4933630;29;20111;-40
2022/11/03 14:59:26;;;;;;;7.90;4.47;;;;;;;;;;4934248;29;20118;-40